sensor_id;sensor_type;location;lat;lon;timestamp;P1;durP1;ratioP1;P2;durP2;ratioP2
58222;SDS011;44020;50.890;15.796;2023-02-26T01:28:00;82.80;;;23.50;;
58222;SDS011;44020;50.890;15.796;2023-02-26T03:56:17;1.30;;;0.80;;
58222;SDS011;44020;50.890;15.796;2023-02-26T03:58:48;3.10;;;1.00;;
58222;SDS011;44020;50.890;15.796;2023-02-26T04:01:21;1.10;;;0.80;;
58222;SDS011;44020;50.890;15.796;2023-02-26T04:03:54;2.20;;;0.80;;
58222;SDS011;44020;50.890;15.796;2023-02-26T04:06:29;1.40;;;0.80;;
58222;SDS011;44020;50.890;15.796;2023-02-26T04:08:59;3.10;;;1.40;;
58222;SDS011;44020;50.890;15.796;2023-02-26T04:11:28;2.30;;;0.80;;
58222;SDS011;44020;50.890;15.796;2023-02-26T04:13:57;3.50;;;1.30;;
58222;SDS011;44020;50.890;15.796;2023-02-26T04:16:25;3.20;;;1.00;;
58222;SDS011;44020;50.890;15.796;2023-02-26T04:18:52;3.90;;;1.20;;
58222;SDS011;44020;50.890;15.796;2023-02-26T04:21:21;3.70;;;1.40;;
58222;SDS011;44020;50.890;15.796;2023-02-26T04:23:48;2.40;;;1.10;;
58222;SDS011;44020;50.890;15.796;2023-02-26T04:26:16;1.80;;;1.00;;
58222;SDS011;44020;50.890;15.796;2023-02-26T04:28:43;1.90;;;0.80;;
58222;SDS011;44020;50.890;15.796;2023-02-26T04:31:10;2.50;;;0.70;;
58222;SDS011;44020;50.890;15.796;2023-02-26T04:33:38;1.70;;;0.90;;
58222;SDS011;44020;50.890;15.796;2023-02-26T04:36:05;1.90;;;0.80;;
58222;SDS011;44020;50.890;15.796;2023-02-26T04:38:33;2.50;;;0.90;;
58222;SDS011;44020;50.890;15.796;2023-02-26T04:41:00;2.20;;;0.70;;
58222;SDS011;44020;50.890;15.796;2023-02-26T04:43:28;1.80;;;0.90;;
58222;SDS011;44020;50.890;15.796;2023-02-26T04:45:55;1.20;;;0.70;;
58222;SDS011;44020;50.890;15.796;2023-02-26T04:48:22;2.90;;;0.70;;
58222;SDS011;44020;50.890;15.796;2023-02-26T04:50:50;2.30;;;0.80;;
58222;SDS011;44020;50.890;15.796;2023-02-26T04:53:18;3.40;;;0.80;;
58222;SDS011;44020;50.890;15.796;2023-02-26T04:55:46;1.90;;;0.90;;
58222;SDS011;44020;50.890;15.796;2023-02-26T04:58:15;3.60;;;0.90;;
58222;SDS011;44020;50.890;15.796;2023-02-26T05:00:42;2.20;;;1.00;;
58222;SDS011;44020;50.890;15.796;2023-02-26T05:03:13;3.30;;;1.00;;
58222;SDS011;44020;50.890;15.796;2023-02-26T05:05:41;4.40;;;1.50;;
58222;SDS011;44020;50.890;15.796;2023-02-26T05:08:08;2.40;;;1.00;;
58222;SDS011;44020;50.890;15.796;2023-02-26T05:10:36;4.40;;;1.50;;
58222;SDS011;44020;50.890;15.796;2023-02-26T05:13:03;4.80;;;1.70;;
58222;SDS011;44020;50.890;15.796;2023-02-26T05:15:31;6.40;;;1.70;;
58222;SDS011;44020;50.890;15.796;2023-02-26T05:17:58;4.50;;;1.70;;
58222;SDS011;44020;50.890;15.796;2023-02-26T05:20:25;2.10;;;1.10;;
58222;SDS011;44020;50.890;15.796;2023-02-26T05:22:53;4.00;;;1.50;;
58222;SDS011;44020;50.890;15.796;2023-02-26T05:25:21;4.20;;;1.10;;
58222;SDS011;44020;50.890;15.796;2023-02-26T05:27:48;6.10;;;1.30;;
58222;SDS011;44020;50.890;15.796;2023-02-26T05:30:16;3.70;;;1.10;;
58222;SDS011;44020;50.890;15.796;2023-02-26T05:32:44;3.50;;;1.30;;
58222;SDS011;44020;50.890;15.796;2023-02-26T05:35:12;3.50;;;1.30;;
58222;SDS011;44020;50.890;15.796;2023-02-26T05:37:39;5.10;;;1.40;;
58222;SDS011;44020;50.890;15.796;2023-02-26T05:40:08;4.50;;;1.50;;
58222;SDS011;44020;50.890;15.796;2023-02-26T05:42:39;4.90;;;2.20;;
58222;SDS011;44020;50.890;15.796;2023-02-26T05:45:07;6.00;;;1.70;;
58222;SDS011;44020;50.890;15.796;2023-02-26T05:47:35;10.30;;;2.70;;
58222;SDS011;44020;50.890;15.796;2023-02-26T05:50:03;3.10;;;1.50;;
58222;SDS011;44020;50.890;15.796;2023-02-26T05:52:31;8.00;;;2.50;;
58222;SDS011;44020;50.890;15.796;2023-02-26T05:54:59;2.20;;;1.30;;
58222;SDS011;44020;50.890;15.796;2023-02-26T05:57:27;2.10;;;1.10;;
58222;SDS011;44020;50.890;15.796;2023-02-26T05:59:55;3.80;;;1.20;;
58222;SDS011;44020;50.890;15.796;2023-02-26T06:02:22;2.70;;;0.90;;
58222;SDS011;44020;50.890;15.796;2023-02-26T06:04:49;3.50;;;1.00;;
58222;SDS011;44020;50.890;15.796;2023-02-26T06:07:17;1.70;;;0.70;;
58222;SDS011;44020;50.890;15.796;2023-02-26T06:09:44;2.50;;;0.80;;
58222;SDS011;44020;50.890;15.796;2023-02-26T06:12:12;1.70;;;0.80;;
58222;SDS011;44020;50.890;15.796;2023-02-26T06:14:40;3.80;;;1.10;;
58222;SDS011;44020;50.890;15.796;2023-02-26T06:17:07;4.10;;;1.10;;
58222;SDS011;44020;50.890;15.796;2023-02-26T06:19:34;2.90;;;0.80;;
58222;SDS011;44020;50.890;15.796;2023-02-26T06:22:02;3.10;;;1.00;;
58222;SDS011;44020;50.890;15.796;2023-02-26T06:24:29;2.80;;;1.20;;
58222;SDS011;44020;50.890;15.796;2023-02-26T06:26:56;2.70;;;1.00;;
58222;SDS011;44020;50.890;15.796;2023-02-26T06:29:24;2.60;;;1.10;;
58222;SDS011;44020;50.890;15.796;2023-02-26T06:31:51;1.40;;;0.80;;
58222;SDS011;44020;50.890;15.796;2023-02-26T06:34:18;2.80;;;1.00;;
58222;SDS011;44020;50.890;15.796;2023-02-26T06:36:46;3.00;;;1.00;;
58222;SDS011;44020;50.890;15.796;2023-02-26T06:39:13;4.40;;;1.10;;
58222;SDS011;44020;50.890;15.796;2023-02-26T06:41:40;6.50;;;1.50;;
58222;SDS011;44020;50.890;15.796;2023-02-26T06:44:08;4.90;;;1.70;;
58222;SDS011;44020;50.890;15.796;2023-02-26T06:46:37;10.40;;;3.10;;
58222;SDS011;44020;50.890;15.796;2023-02-26T06:49:04;4.60;;;1.70;;
58222;SDS011;44020;50.890;15.796;2023-02-26T06:51:32;6.10;;;2.20;;
58222;SDS011;44020;50.890;15.796;2023-02-26T06:54:00;8.50;;;1.70;;
58222;SDS011;44020;50.890;15.796;2023-02-26T06:56:28;9.50;;;3.80;;
58222;SDS011;44020;50.890;15.796;2023-02-26T06:58:55;7.30;;;2.80;;
58222;SDS011;44020;50.890;15.796;2023-02-26T07:01:22;3.50;;;1.30;;
58222;SDS011;44020;50.890;15.796;2023-02-26T07:03:50;5.60;;;1.90;;
58222;SDS011;44020;50.890;15.796;2023-02-26T07:06:17;6.80;;;2.40;;
58222;SDS011;44020;50.890;15.796;2023-02-26T07:08:45;9.00;;;3.20;;
58222;SDS011;44020;50.890;15.796;2023-02-26T07:11:12;8.90;;;3.40;;
58222;SDS011;44020;50.890;15.796;2023-02-26T07:13:40;4.60;;;1.50;;
58222;SDS011;44020;50.890;15.796;2023-02-26T07:16:07;3.00;;;1.10;;
58222;SDS011;44020;50.890;15.796;2023-02-26T07:18:35;4.10;;;1.50;;
58222;SDS011;44020;50.890;15.796;2023-02-26T07:21:03;6.00;;;2.60;;
58222;SDS011;44020;50.890;15.796;2023-02-26T07:23:31;3.30;;;1.60;;
58222;SDS011;44020;50.890;15.796;2023-02-26T07:25:59;2.70;;;1.30;;
58222;SDS011;44020;50.890;15.796;2023-02-26T07:28:26;2.20;;;1.20;;
58222;SDS011;44020;50.890;15.796;2023-02-26T07:30:54;3.30;;;1.00;;
58222;SDS011;44020;50.890;15.796;2023-02-26T07:33:22;2.90;;;0.90;;
58222;SDS011;44020;50.890;15.796;2023-02-26T07:35:50;3.90;;;1.10;;
58222;SDS011;44020;50.890;15.796;2023-02-26T07:38:18;3.90;;;1.40;;
58222;SDS011;44020;50.890;15.796;2023-02-26T07:40:45;4.60;;;2.00;;
58222;SDS011;44020;50.890;15.796;2023-02-26T07:43:13;3.60;;;1.20;;
58222;SDS011;44020;50.890;15.796;2023-02-26T07:45:40;3.60;;;1.00;;
58222;SDS011;44020;50.890;15.796;2023-02-26T07:48:07;1.90;;;1.00;;
58222;SDS011;44020;50.890;15.796;2023-02-26T07:50:35;4.70;;;1.30;;
58222;SDS011;44020;50.890;15.796;2023-02-26T07:53:02;2.50;;;1.00;;
58222;SDS011;44020;50.890;15.796;2023-02-26T07:55:30;3.00;;;1.00;;
58222;SDS011;44020;50.890;15.796;2023-02-26T07:57:57;5.10;;;1.50;;
58222;SDS011;44020;50.890;15.796;2023-02-26T08:00:25;3.20;;;1.00;;
58222;SDS011;44020;50.890;15.796;2023-02-26T08:02:52;4.00;;;1.40;;
58222;SDS011;44020;50.890;15.796;2023-02-26T08:05:20;3.50;;;1.00;;
58222;SDS011;44020;50.890;15.796;2023-02-26T08:07:48;3.00;;;1.30;;
58222;SDS011;44020;50.890;15.796;2023-02-26T08:10:15;2.10;;;1.00;;
58222;SDS011;44020;50.890;15.796;2023-02-26T08:12:43;3.40;;;1.20;;
58222;SDS011;44020;50.890;15.796;2023-02-26T08:15:10;3.10;;;1.50;;
58222;SDS011;44020;50.890;15.796;2023-02-26T08:17:41;4.40;;;1.60;;
58222;SDS011;44020;50.890;15.796;2023-02-26T08:20:08;3.10;;;1.40;;
58222;SDS011;44020;50.890;15.796;2023-02-26T08:22:37;2.40;;;1.30;;
58222;SDS011;44020;50.890;15.796;2023-02-26T08:25:05;5.40;;;1.30;;
58222;SDS011;44020;50.890;15.796;2023-02-26T08:27:33;2.50;;;1.20;;
58222;SDS011;44020;50.890;15.796;2023-02-26T08:30:02;3.30;;;1.10;;
58222;SDS011;44020;50.890;15.796;2023-02-26T08:32:30;3.50;;;1.20;;
58222;SDS011;44020;50.890;15.796;2023-02-26T08:34:58;2.20;;;1.20;;
58222;SDS011;44020;50.890;15.796;2023-02-26T08:37:26;2.40;;;0.80;;
58222;SDS011;44020;50.890;15.796;2023-02-26T08:39:54;2.60;;;1.00;;
58222;SDS011;44020;50.890;15.796;2023-02-26T08:42:21;3.80;;;1.50;;
58222;SDS011;44020;50.890;15.796;2023-02-26T08:44:49;2.30;;;1.30;;
58222;SDS011;44020;50.890;15.796;2023-02-26T08:47:16;5.20;;;1.60;;
58222;SDS011;44020;50.890;15.796;2023-02-26T08:49:44;3.80;;;1.80;;
58222;SDS011;44020;50.890;15.796;2023-02-26T08:52:11;3.70;;;1.90;;
58222;SDS011;44020;50.890;15.796;2023-02-26T08:54:39;5.50;;;2.00;;
58222;SDS011;44020;50.890;15.796;2023-02-26T08:57:06;3.10;;;1.70;;
58222;SDS011;44020;50.890;15.796;2023-02-26T08:59:34;21.50;;;6.50;;
58222;SDS011;44020;50.890;15.796;2023-02-26T09:02:02;6.60;;;2.70;;
58222;SDS011;44020;50.890;15.796;2023-02-26T09:04:29;4.60;;;1.90;;
58222;SDS011;44020;50.890;15.796;2023-02-26T09:06:57;9.30;;;3.50;;
58222;SDS011;44020;50.890;15.796;2023-02-26T09:09:24;6.00;;;2.80;;
58222;SDS011;44020;50.890;15.796;2023-02-26T09:11:51;8.70;;;3.30;;
58222;SDS011;44020;50.890;15.796;2023-02-26T09:14:19;22.50;;;6.50;;
58222;SDS011;44020;50.890;15.796;2023-02-26T09:16:46;37.10;;;8.70;;
58222;SDS011;44020;50.890;15.796;2023-02-26T09:19:13;11.80;;;3.00;;
58222;SDS011;44020;50.890;15.796;2023-02-26T09:21:41;12.10;;;3.70;;
58222;SDS011;44020;50.890;15.796;2023-02-26T09:24:10;22.20;;;6.50;;
58222;SDS011;44020;50.890;15.796;2023-02-26T09:26:37;5.50;;;2.00;;
58222;SDS011;44020;50.890;15.796;2023-02-26T09:29:05;3.80;;;2.00;;
58222;SDS011;44020;50.890;15.796;2023-02-26T09:31:32;33.00;;;9.00;;
58222;SDS011;44020;50.890;15.796;2023-02-26T09:33:59;11.30;;;3.20;;
58222;SDS011;44020;50.890;15.796;2023-02-26T09:36:27;4.10;;;1.90;;
58222;SDS011;44020;50.890;15.796;2023-02-26T09:38:57;9.40;;;2.70;;
58222;SDS011;44020;50.890;15.796;2023-02-26T09:41:29;4.00;;;1.50;;
58222;SDS011;44020;50.890;15.796;2023-02-26T09:46:37;5.10;;;2.00;;
58222;SDS011;44020;50.890;15.796;2023-02-26T09:52:10;15.70;;;5.60;;
58222;SDS011;44020;50.890;15.796;2023-02-26T09:54:45;7.50;;;2.30;;
58222;SDS011;44020;50.890;15.796;2023-02-26T09:57:32;6.40;;;2.20;;
58222;SDS011;44020;50.890;15.796;2023-02-26T10:00:03;11.00;;;3.10;;
58222;SDS011;44020;50.890;15.796;2023-02-26T10:05:38;3.90;;;1.80;;
58222;SDS011;44020;50.890;15.796;2023-02-26T10:08:11;8.70;;;3.00;;
58222;SDS011;44020;50.890;15.796;2023-02-26T10:10:49;2.80;;;1.20;;
58222;SDS011;44020;50.890;15.796;2023-02-26T10:13:30;9.30;;;3.10;;
58222;SDS011;44020;50.890;15.796;2023-02-26T10:18:43;17.50;;;5.40;;
58222;SDS011;44020;50.890;15.796;2023-02-26T10:21:49;8.10;;;3.00;;
58222;SDS011;44020;50.890;15.796;2023-02-26T10:24:13;5.00;;;1.60;;
58222;SDS011;44020;50.890;15.796;2023-02-26T10:26:59;5.80;;;1.80;;
58222;SDS011;44020;50.890;15.796;2023-02-26T10:32:44;2.70;;;1.30;;
58222;SDS011;44020;50.890;15.796;2023-02-26T10:35:26;6.30;;;1.70;;
58222;SDS011;44020;50.890;15.796;2023-02-26T10:37:59;4.00;;;1.70;;
58222;SDS011;44020;50.890;15.796;2023-02-26T10:43:18;4.20;;;2.20;;
58222;SDS011;44020;50.890;15.796;2023-02-26T10:51:23;10.30;;;4.50;;
58222;SDS011;44020;50.890;15.796;2023-02-26T10:54:01;8.60;;;3.70;;
58222;SDS011;44020;50.890;15.796;2023-02-26T10:56:38;8.70;;;2.60;;
58222;SDS011;44020;50.890;15.796;2023-02-26T10:59:05;4.20;;;1.70;;
58222;SDS011;44020;50.890;15.796;2023-02-26T11:01:34;6.30;;;3.20;;
58222;SDS011;44020;50.890;15.796;2023-02-26T11:04:04;9.00;;;2.60;;
58222;SDS011;44020;50.890;15.796;2023-02-26T11:06:39;4.50;;;1.80;;
58222;SDS011;44020;50.890;15.796;2023-02-26T11:09:27;6.70;;;2.00;;
58222;SDS011;44020;50.890;15.796;2023-02-26T11:12:03;18.40;;;3.60;;
58222;SDS011;44020;50.890;15.796;2023-02-26T11:14:32;7.30;;;2.00;;
58222;SDS011;44020;50.890;15.796;2023-02-26T11:17:01;6.60;;;2.70;;
58222;SDS011;44020;50.890;15.796;2023-02-26T11:19:32;3.80;;;2.40;;
58222;SDS011;44020;50.890;15.796;2023-02-26T11:22:04;3.20;;;1.70;;
58222;SDS011;44020;50.890;15.796;2023-02-26T11:24:36;4.30;;;2.00;;
58222;SDS011;44020;50.890;15.796;2023-02-26T11:27:10;5.50;;;3.20;;
58222;SDS011;44020;50.890;15.796;2023-02-26T11:29:52;9.80;;;4.60;;
58222;SDS011;44020;50.890;15.796;2023-02-26T11:32:28;7.20;;;2.70;;
58222;SDS011;44020;50.890;15.796;2023-02-26T11:34:57;5.90;;;2.50;;
58222;SDS011;44020;50.890;15.796;2023-02-26T11:38:09;5.10;;;2.20;;
58222;SDS011;44020;50.890;15.796;2023-02-26T11:40:33;6.10;;;2.20;;
58222;SDS011;44020;50.890;15.796;2023-02-26T11:43:14;6.40;;;2.60;;
58222;SDS011;44020;50.890;15.796;2023-02-26T11:45:44;5.70;;;2.20;;
58222;SDS011;44020;50.890;15.796;2023-02-26T11:51:14;2.60;;;1.50;;
58222;SDS011;44020;50.890;15.796;2023-02-26T11:53:59;4.30;;;1.70;;
58222;SDS011;44020;50.890;15.796;2023-02-26T11:56:32;3.20;;;1.30;;
58222;SDS011;44020;50.890;15.796;2023-02-26T11:59:05;3.00;;;1.50;;
58222;SDS011;44020;50.890;15.796;2023-02-26T12:01:42;6.40;;;2.10;;
58222;SDS011;44020;50.890;15.796;2023-02-26T12:04:10;3.50;;;1.70;;
58222;SDS011;44020;50.890;15.796;2023-02-26T12:06:39;3.70;;;1.80;;
58222;SDS011;44020;50.890;15.796;2023-02-26T12:09:09;9.20;;;3.30;;
58222;SDS011;44020;50.890;15.796;2023-02-26T12:19:54;10.90;;;3.80;;
58222;SDS011;44020;50.890;15.796;2023-02-26T12:34:12;6.10;;;2.20;;
58222;SDS011;44020;50.890;15.796;2023-02-26T12:51:21;6.40;;;2.40;;
58222;SDS011;44020;50.890;15.796;2023-02-26T12:53:57;5.60;;;2.40;;
58222;SDS011;44020;50.890;15.796;2023-02-26T12:59:19;5.60;;;2.40;;
58222;SDS011;44020;50.890;15.796;2023-02-26T13:05:23;6.80;;;2.50;;
58222;SDS011;44020;50.890;15.796;2023-02-26T13:08:08;4.60;;;2.00;;
58222;SDS011;44020;50.890;15.796;2023-02-26T13:16:53;44.30;;;12.30;;
58222;SDS011;44020;50.890;15.796;2023-02-26T13:22:23;6.90;;;2.60;;
58222;SDS011;44020;50.890;15.796;2023-02-26T13:25:08;4.50;;;1.80;;
58222;SDS011;44020;50.890;15.796;2023-02-26T13:27:47;3.60;;;1.40;;
58222;SDS011;44020;50.890;15.796;2023-02-26T13:30:23;6.40;;;3.10;;
58222;SDS011;44020;50.890;15.796;2023-02-26T13:32:56;4.30;;;2.40;;
58222;SDS011;44020;50.890;15.796;2023-02-26T13:35:27;6.10;;;2.20;;
58222;SDS011;44020;50.890;15.796;2023-02-26T13:38:00;22.50;;;8.20;;
58222;SDS011;44020;50.890;15.796;2023-02-26T13:40:46;12.00;;;4.60;;
58222;SDS011;44020;50.890;15.796;2023-02-26T13:51:38;9.60;;;3.60;;
58222;SDS011;44020;50.890;15.796;2023-02-26T14:04:56;6.60;;;2.80;;
58222;SDS011;44020;50.890;15.796;2023-02-26T14:07:45;9.00;;;3.20;;
58222;SDS011;44020;50.890;15.796;2023-02-26T14:13:33;6.30;;;2.10;;
58222;SDS011;44020;50.890;15.796;2023-02-26T14:18:30;9.10;;;2.70;;
58222;SDS011;44020;50.890;15.796;2023-02-26T14:27:06;10.50;;;3.00;;
58222;SDS011;44020;50.890;15.796;2023-02-26T14:29:38;5.60;;;2.20;;
58222;SDS011;44020;50.890;15.796;2023-02-26T14:34:42;12.80;;;5.30;;
58222;SDS011;44020;50.890;15.796;2023-02-26T14:37:24;8.50;;;4.50;;
58222;SDS011;44020;50.890;15.796;2023-02-26T14:47:43;20.70;;;8.50;;
58222;SDS011;44020;50.890;15.796;2023-02-26T14:50:15;15.00;;;6.40;;
58222;SDS011;44020;50.890;15.796;2023-02-26T14:55:33;5.00;;;1.70;;
58222;SDS011;44020;50.890;15.796;2023-02-26T15:24:04;7.90;;;4.10;;
58222;SDS011;44020;50.890;15.796;2023-02-26T15:26:35;12.60;;;4.90;;
58222;SDS011;44020;50.890;15.796;2023-02-26T15:29:09;13.00;;;5.00;;
58222;SDS011;44020;50.890;15.796;2023-02-26T15:31:43;17.10;;;6.50;;
58222;SDS011;44020;50.890;15.796;2023-02-26T15:34:22;11.00;;;5.60;;
58222;SDS011;44020;50.890;15.796;2023-02-26T15:36:50;17.10;;;7.20;;
58222;SDS011;44020;50.890;15.796;2023-02-26T15:39:21;20.90;;;8.00;;
58222;SDS011;44020;50.890;15.796;2023-02-26T15:41:50;59.70;;;16.40;;
58222;SDS011;44020;50.890;15.796;2023-02-26T15:44:25;53.20;;;14.20;;
58222;SDS011;44020;50.890;15.796;2023-02-26T15:46:57;43.00;;;11.10;;
58222;SDS011;44020;50.890;15.796;2023-02-26T15:49:28;31.50;;;13.10;;
58222;SDS011;44020;50.890;15.796;2023-02-26T15:52:01;18.90;;;7.80;;
58222;SDS011;44020;50.890;15.796;2023-02-26T15:54:34;20.70;;;7.90;;
58222;SDS011;44020;50.890;15.796;2023-02-26T15:57:10;24.50;;;10.60;;
58222;SDS011;44020;50.890;15.796;2023-02-26T15:59:41;20.00;;;8.40;;
58222;SDS011;44020;50.890;15.796;2023-02-26T16:02:16;8.50;;;3.90;;
58222;SDS011;44020;50.890;15.796;2023-02-26T16:04:47;7.30;;;3.10;;
58222;SDS011;44020;50.890;15.796;2023-02-26T16:07:15;6.20;;;3.00;;
58222;SDS011;44020;50.890;15.796;2023-02-26T16:09:47;5.30;;;2.40;;
58222;SDS011;44020;50.890;15.796;2023-02-26T16:12:21;5.50;;;2.00;;
58222;SDS011;44020;50.890;15.796;2023-02-26T16:14:58;6.10;;;2.70;;
58222;SDS011;44020;50.890;15.796;2023-02-26T16:17:30;8.10;;;3.10;;
58222;SDS011;44020;50.890;15.796;2023-02-26T16:20:02;6.50;;;2.80;;
58222;SDS011;44020;50.890;15.796;2023-02-26T16:22:34;7.00;;;3.00;;
58222;SDS011;44020;50.890;15.796;2023-02-26T16:25:13;6.70;;;2.90;;
58222;SDS011;44020;50.890;15.796;2023-02-26T16:27:51;4.80;;;2.80;;
58222;SDS011;44020;50.890;15.796;2023-02-26T16:30:36;7.40;;;3.10;;
58222;SDS011;44020;50.890;15.796;2023-02-26T16:33:08;17.60;;;6.60;;
58222;SDS011;44020;50.890;15.796;2023-02-26T16:35:45;18.40;;;7.30;;
58222;SDS011;44020;50.890;15.796;2023-02-26T16:38:21;15.10;;;5.80;;
58222;SDS011;44020;50.890;15.796;2023-02-26T16:41:10;76.40;;;16.90;;
58222;SDS011;44020;50.890;15.796;2023-02-26T16:46:13;91.10;;;21.80;;
58222;SDS011;44020;50.890;15.796;2023-02-26T16:48:47;45.90;;;16.60;;
58222;SDS011;44020;50.890;15.796;2023-02-26T16:51:19;147.00;;;27.10;;
58222;SDS011;44020;50.890;15.796;2023-02-26T16:56:51;43.60;;;14.90;;
58222;SDS011;44020;50.890;15.796;2023-02-26T16:59:29;50.30;;;16.10;;
58222;SDS011;44020;50.890;15.796;2023-02-26T17:02:16;45.00;;;16.30;;
58222;SDS011;44020;50.890;15.796;2023-02-26T17:04:56;39.60;;;14.90;;
58222;SDS011;44020;50.890;15.796;2023-02-26T17:07:31;46.40;;;19.50;;
58222;SDS011;44020;50.890;15.796;2023-02-26T17:10:08;91.80;;;30.10;;
58222;SDS011;44020;50.890;15.796;2023-02-26T17:12:52;42.10;;;15.40;;
58222;SDS011;44020;50.890;15.796;2023-02-26T17:15:33;30.10;;;10.00;;
58222;SDS011;44020;50.890;15.796;2023-02-26T17:18:03;81.40;;;20.70;;
58222;SDS011;44020;50.890;15.796;2023-02-26T17:20:31;88.20;;;24.00;;
58222;SDS011;44020;50.890;15.796;2023-02-26T17:23:00;38.40;;;14.40;;
58222;SDS011;44020;50.890;15.796;2023-02-26T17:25:31;21.70;;;8.00;;
58222;SDS011;44020;50.890;15.796;2023-02-26T17:28:05;21.40;;;7.60;;
58222;SDS011;44020;50.890;15.796;2023-02-26T17:30:34;22.40;;;7.90;;
58222;SDS011;44020;50.890;15.796;2023-02-26T17:33:01;16.50;;;6.00;;
58222;SDS011;44020;50.890;15.796;2023-02-26T17:35:30;12.00;;;5.40;;
58222;SDS011;44020;50.890;15.796;2023-02-26T17:37:58;13.90;;;6.00;;
58222;SDS011;44020;50.890;15.796;2023-02-26T17:40:27;13.10;;;6.50;;
58222;SDS011;44020;50.890;15.796;2023-02-26T17:43:01;19.50;;;7.40;;
58222;SDS011;44020;50.890;15.796;2023-02-26T17:45:30;16.80;;;7.60;;
58222;SDS011;44020;50.890;15.796;2023-02-26T17:47:59;19.40;;;9.90;;
58222;SDS011;44020;50.890;15.796;2023-02-26T17:53:14;14.80;;;7.60;;
58222;SDS011;44020;50.890;15.796;2023-02-26T17:55:43;14.30;;;7.50;;
58222;SDS011;44020;50.890;15.796;2023-02-26T17:58:16;11.70;;;6.10;;
58222;SDS011;44020;50.890;15.796;2023-02-26T18:00:55;8.70;;;4.20;;
58222;SDS011;44020;50.890;15.796;2023-02-26T18:03:23;9.40;;;3.80;;
58222;SDS011;44020;50.890;15.796;2023-02-26T18:05:51;12.40;;;5.00;;
58222;SDS011;44020;50.890;15.796;2023-02-26T18:10:53;9.30;;;4.30;;
58222;SDS011;44020;50.890;15.796;2023-02-26T18:13:22;9.30;;;3.90;;
58222;SDS011;44020;50.890;15.796;2023-02-26T18:15:50;12.30;;;5.40;;
58222;SDS011;44020;50.890;15.796;2023-02-26T18:18:19;10.50;;;3.40;;
58222;SDS011;44020;50.890;15.796;2023-02-26T18:20:47;9.90;;;3.30;;
58222;SDS011;44020;50.890;15.796;2023-02-26T18:23:15;9.10;;;3.50;;
58222;SDS011;44020;50.890;15.796;2023-02-26T18:25:44;8.20;;;2.70;;
58222;SDS011;44020;50.890;15.796;2023-02-26T18:28:15;10.60;;;3.80;;
58222;SDS011;44020;50.890;15.796;2023-02-26T18:30:46;15.20;;;5.80;;
58222;SDS011;44020;50.890;15.796;2023-02-26T18:33:15;12.70;;;4.50;;
58222;SDS011;44020;50.890;15.796;2023-02-26T18:35:43;13.80;;;5.40;;
58222;SDS011;44020;50.890;15.796;2023-02-26T18:38:19;9.20;;;4.80;;
58222;SDS011;44020;50.890;15.796;2023-02-26T18:40:49;29.60;;;10.60;;
58222;SDS011;44020;50.890;15.796;2023-02-26T18:43:18;27.40;;;10.10;;
58222;SDS011;44020;50.890;15.796;2023-02-26T18:45:47;27.80;;;9.40;;
58222;SDS011;44020;50.890;15.796;2023-02-26T18:48:19;25.80;;;9.50;;
58222;SDS011;44020;50.890;15.796;2023-02-26T18:50:47;31.50;;;12.90;;
58222;SDS011;44020;50.890;15.796;2023-02-26T18:53:16;18.90;;;6.50;;
58222;SDS011;44020;50.890;15.796;2023-02-26T18:55:49;13.80;;;6.30;;
58222;SDS011;44020;50.890;15.796;2023-02-26T18:58:19;12.00;;;4.40;;
58222;SDS011;44020;50.890;15.796;2023-02-26T19:00:48;14.80;;;6.60;;
58222;SDS011;44020;50.890;15.796;2023-02-26T19:03:16;14.20;;;6.20;;
58222;SDS011;44020;50.890;15.796;2023-02-26T19:05:44;17.80;;;7.90;;
58222;SDS011;44020;50.890;15.796;2023-02-26T19:08:12;26.20;;;9.70;;
58222;SDS011;44020;50.890;15.796;2023-02-26T19:10:40;67.60;;;26.60;;
58222;SDS011;44020;50.890;15.796;2023-02-26T19:13:07;38.80;;;17.80;;
58222;SDS011;44020;50.890;15.796;2023-02-26T19:15:35;23.10;;;10.10;;
58222;SDS011;44020;50.890;15.796;2023-02-26T19:18:03;25.60;;;10.30;;
58222;SDS011;44020;50.890;15.796;2023-02-26T19:20:30;10.20;;;4.20;;
58222;SDS011;44020;50.890;15.796;2023-02-26T19:22:58;36.40;;;17.30;;
58222;SDS011;44020;50.890;15.796;2023-02-26T19:25:27;22.70;;;10.50;;
58222;SDS011;44020;50.890;15.796;2023-02-26T19:27:57;13.20;;;6.20;;
58222;SDS011;44020;50.890;15.796;2023-02-26T19:30:24;8.10;;;3.90;;
58222;SDS011;44020;50.890;15.796;2023-02-26T19:32:52;5.40;;;2.10;;
58222;SDS011;44020;50.890;15.796;2023-02-26T19:35:21;7.00;;;2.60;;
58222;SDS011;44020;50.890;15.796;2023-02-26T19:37:53;8.10;;;2.70;;
58222;SDS011;44020;50.890;15.796;2023-02-26T19:40:20;7.20;;;2.60;;
58222;SDS011;44020;50.890;15.796;2023-02-26T19:42:48;5.60;;;2.50;;
58222;SDS011;44020;50.890;15.796;2023-02-26T19:45:18;18.70;;;8.50;;
58222;SDS011;44020;50.890;15.796;2023-02-26T19:47:46;13.70;;;5.90;;
58222;SDS011;44020;50.890;15.796;2023-02-26T19:50:14;12.00;;;4.30;;
58222;SDS011;44020;50.890;15.796;2023-02-26T19:52:42;14.80;;;4.60;;
58222;SDS011;44020;50.890;15.796;2023-02-26T19:55:10;14.10;;;5.80;;
58222;SDS011;44020;50.890;15.796;2023-02-26T19:57:40;8.00;;;3.10;;
58222;SDS011;44020;50.890;15.796;2023-02-26T20:00:08;11.00;;;2.90;;
58222;SDS011;44020;50.890;15.796;2023-02-26T20:02:38;9.80;;;3.30;;
58222;SDS011;44020;50.890;15.796;2023-02-26T20:05:07;10.00;;;3.20;;
58222;SDS011;44020;50.890;15.796;2023-02-26T20:07:42;14.60;;;3.80;;
58222;SDS011;44020;50.890;15.796;2023-02-26T20:10:11;14.80;;;6.00;;
58222;SDS011;44020;50.890;15.796;2023-02-26T20:12:39;16.60;;;4.50;;
58222;SDS011;44020;50.890;15.796;2023-02-26T20:15:07;17.10;;;5.30;;
58222;SDS011;44020;50.890;15.796;2023-02-26T20:17:35;12.50;;;3.40;;
58222;SDS011;44020;50.890;15.796;2023-02-26T20:20:03;13.60;;;3.90;;
58222;SDS011;44020;50.890;15.796;2023-02-26T20:22:32;11.50;;;3.30;;
58222;SDS011;44020;50.890;15.796;2023-02-26T20:24:59;9.10;;;2.60;;
58222;SDS011;44020;50.890;15.796;2023-02-26T20:27:28;8.60;;;2.80;;
58222;SDS011;44020;50.890;15.796;2023-02-26T20:29:56;10.20;;;4.40;;
58222;SDS011;44020;50.890;15.796;2023-02-26T20:32:24;20.50;;;8.40;;
58222;SDS011;44020;50.890;15.796;2023-02-26T20:34:51;29.50;;;12.80;;
58222;SDS011;44020;50.890;15.796;2023-02-26T20:37:19;35.00;;;14.20;;
58222;SDS011;44020;50.890;15.796;2023-02-26T20:39:48;32.40;;;13.80;;
58222;SDS011;44020;50.890;15.796;2023-02-26T20:42:16;36.50;;;14.00;;
58222;SDS011;44020;50.890;15.796;2023-02-26T20:44:44;31.90;;;12.20;;
58222;SDS011;44020;50.890;15.796;2023-02-26T20:47:12;26.30;;;10.40;;
58222;SDS011;44020;50.890;15.796;2023-02-26T20:49:39;41.30;;;15.50;;
58222;SDS011;44020;50.890;15.796;2023-02-26T20:52:06;77.90;;;26.40;;
58222;SDS011;44020;50.890;15.796;2023-02-26T20:54:35;61.50;;;22.20;;
58222;SDS011;44020;50.890;15.796;2023-02-26T20:57:02;46.60;;;16.80;;
58222;SDS011;44020;50.890;15.796;2023-02-26T20:59:30;50.60;;;18.70;;
58222;SDS011;44020;50.890;15.796;2023-02-26T21:01:58;49.50;;;18.20;;
58222;SDS011;44020;50.890;15.796;2023-02-26T21:04:25;17.40;;;6.90;;
58222;SDS011;44020;50.890;15.796;2023-02-26T21:06:52;13.30;;;5.00;;
58222;SDS011;44020;50.890;15.796;2023-02-26T21:09:20;101.50;;;28.70;;
58222;SDS011;44020;50.890;15.796;2023-02-26T21:11:47;126.30;;;28.80;;
58222;SDS011;44020;50.890;15.796;2023-02-26T21:14:18;67.00;;;16.70;;
58222;SDS011;44020;50.890;15.796;2023-02-26T21:16:45;74.50;;;18.80;;